createdAt,value
2018-03-31T04:51:05.594Z,14.4
2018-03-31T04:51:55.478Z,14.4
2018-03-31T04:52:45.356Z,14.4
2018-03-31T04:53:35.101Z,14.4
2018-03-31T04:54:25.067Z,14.4
2018-03-31T04:55:16.165Z,14.4
2018-03-31T04:56:04.738Z,14.4
2018-03-31T04:56:54.728Z,14.4
2018-03-31T04:57:45.491Z,14.4
2018-03-31T04:58:35.392Z,14.4
2018-03-31T04:59:24.952Z,14.4
2018-03-31T05:00:15.373Z,14.4
2018-03-31T05:01:04.665Z,14.4
2018-03-31T05:01:56.511Z,14.4
2018-03-31T05:02:45.813Z,14.4
2018-03-31T05:03:36.086Z,14.4
2018-03-31T05:04:25.619Z,14.4
2018-03-31T05:05:14.917Z,14.4
2018-03-31T05:06:07.036Z,14.4
2018-03-31T05:06:56.137Z,14.4
2018-03-31T05:07:45.638Z,14.4
2018-03-31T05:08:36.173Z,14.4
2018-03-31T05:09:25.701Z,14.4
2018-03-31T05:10:16.210Z,14.4
2018-03-31T05:11:05.377Z,14.4
2018-03-31T05:11:56.316Z,14.4
2018-03-31T05:12:46.452Z,14.4
2018-03-31T05:13:36.842Z,14.4
2018-03-31T05:14:26.646Z,14.4
2018-03-31T05:15:16.923Z,14.3
2018-03-31T05:16:06.942Z,14.3
2018-03-31T05:16:57.172Z,14.3
2018-03-31T05:17:47.552Z,14.3
2018-03-31T05:18:35.931Z,14.3
2018-03-31T05:19:26.105Z,14.3
2018-03-31T05:20:16.416Z,14.3
2018-03-31T05:21:07.477Z,14.3
2018-03-31T05:21:57.516Z,14.3
2018-03-31T05:22:46.497Z,14.3
2018-03-31T05:23:37.371Z,14.3
2018-03-31T05:24:27.722Z,14.4
2018-03-31T05:25:16.990Z,14.3
2018-03-31T05:26:08.100Z,14.3
2018-03-31T05:26:57.528Z,14.4
2018-03-31T05:27:47.540Z,14.4
2018-03-31T05:28:37.348Z,14.4
2018-03-31T05:29:27.202Z,14.4
2018-03-31T05:30:17.566Z,14.4
2018-03-31T05:31:08.841Z,14.4
2018-03-31T05:31:58.026Z,14.4
2018-03-31T05:32:47.418Z,14.4
2018-03-31T05:33:37.685Z,14.4
2018-03-31T05:34:28.123Z,14.3
2018-03-31T05:35:17.982Z,14.3
2018-03-31T05:36:07.751Z,14.4
2018-03-31T05:36:57.933Z,14.4
2018-03-31T05:37:47.701Z,14.4
2018-03-31T05:38:38.928Z,14.4
2018-03-31T05:39:28.979Z,14.4
2018-03-31T05:40:17.868Z,14.4
2018-03-31T05:41:08.602Z,14.4
2018-03-31T05:41:58.780Z,14.3
2018-03-31T05:42:49.334Z,14.4
2018-03-31T05:43:38.782Z,14.4
2018-03-31T05:44:29.245Z,14.3
2018-03-31T05:45:18.044Z,14.4
2018-03-31T05:46:08.808Z,14.4
2018-03-31T05:46:59.671Z,14.3
2018-03-31T05:47:48.544Z,14.4
2018-03-31T05:48:38.222Z,14.4
2018-03-31T05:49:29.455Z,14.4
2018-03-31T05:50:19.584Z,14.3
2018-03-31T05:51:10.401Z,14.3
2018-03-31T05:51:59.360Z,14.4
2018-03-31T05:52:49.712Z,14.4
2018-03-31T05:53:40.024Z,14.4
2018-03-31T05:54:29.103Z,14.3
2018-03-31T05:55:18.675Z,14.4
2018-03-31T05:56:09.049Z,14.3
2018-03-31T05:56:59.546Z,14.4
2018-03-31T05:57:50.018Z,14.4
2018-03-31T05:58:39.498Z,14.3
2018-03-31T05:59:28.714Z,14.4
2018-03-31T06:00:19.355Z,14.4
2018-03-31T06:01:09.986Z,14.4
2018-03-31T06:02:00.055Z,14.4
2018-03-31T06:02:49.913Z,14.4
2018-03-31T06:03:39.558Z,14.3
2018-03-31T06:04:29.837Z,14.3
2018-03-31T06:05:19.890Z,14.3
2018-03-31T06:06:10.253Z,14.3
2018-03-31T06:06:59.306Z,14.3
2018-03-31T06:07:50.387Z,14.3
2018-03-31T06:08:39.558Z,14.3
2018-03-31T06:09:30.713Z,14.3
2018-03-31T06:10:19.960Z,14.3
2018-03-31T06:11:10.530Z,14.3
2018-03-31T06:12:00.011Z,14.3
2018-03-31T06:12:50.641Z,14.3
2018-03-31T06:13:40.985Z,14.3
2018-03-31T06:14:30.907Z,14.3
2018-03-31T06:15:19.623Z,14.3
2018-03-31T06:16:11.158Z,14.3
2018-03-31T06:17:00.812Z,14.3
2018-03-31T06:17:49.996Z,14.3
2018-03-31T06:18:41.789Z,14.3
2018-03-31T06:19:31.618Z,14.3
2018-03-31T06:20:21.231Z,14.3
2018-03-31T06:21:10.797Z,14.3
2018-03-31T06:22:01.630Z,14.3
2018-03-31T06:22:52.650Z,14.3
2018-03-31T06:23:41.840Z,14.3
2018-03-31T06:24:32.100Z,14.3
2018-03-31T06:25:21.661Z,14.3
2018-03-31T06:26:11.701Z,14.3
2018-03-31T06:27:02.063Z,14.3
2018-03-31T06:27:51.403Z,14.3
2018-03-31T06:28:40.175Z,14.3
2018-03-31T06:29:32.626Z,14.3
2018-03-31T06:30:23.822Z,14.3
2018-03-31T06:31:12.433Z,14.3
2018-03-31T06:32:04.240Z,14.3
2018-03-31T06:32:53.758Z,14.3
2018-03-31T06:33:43.501Z,14.3
2018-03-31T06:34:33.878Z,14.3
2018-03-31T06:35:23.868Z,14.3
2018-03-31T06:36:13.358Z,14.3
2018-03-31T06:37:03.755Z,14.3
2018-03-31T06:37:53.812Z,14.3
2018-03-31T06:38:43.551Z,14.3
2018-03-31T06:39:32.195Z,14.3
2018-03-31T06:40:23.405Z,14.3
2018-03-31T06:41:12.785Z,14.3
2018-03-31T06:42:02.038Z,14.3
2018-03-31T06:42:53.277Z,14.3
2018-03-31T06:43:42.588Z,14.3
2018-03-31T06:44:32.932Z,14.3
2018-03-31T06:45:22.977Z,14.3
2018-03-31T06:46:14.066Z,14.2
2018-03-31T06:47:03.215Z,14.2
2018-03-31T06:47:51.886Z,14.2
2018-03-31T06:48:43.165Z,14.1
2018-03-31T06:49:33.413Z,14.1
2018-03-31T06:50:22.379Z,14.1
2018-03-31T06:51:13.871Z,14.1
2018-03-31T06:52:03.684Z,14.1
2018-03-31T06:52:54.078Z,14.1
2018-03-31T06:53:43.415Z,14.1
2018-03-31T06:54:33.859Z,14.1
2018-03-31T06:55:23.922Z,14.1
2018-03-31T06:56:12.381Z,14.1
2018-03-31T06:57:03.698Z,14.1
2018-03-31T06:57:54.380Z,14.1
2018-03-31T06:58:44.112Z,14.1
2018-03-31T06:59:33.661Z,14.1
2018-03-31T07:00:23.891Z,14.1
2018-03-31T07:01:13.835Z,14.1
2018-03-31T07:02:02.808Z,14.1
2018-03-31T07:02:54.183Z,14.1
2018-03-31T07:03:44.721Z,14.1
2018-03-31T07:04:33.003Z,14.1
2018-03-31T07:05:23.348Z,14.1
2018-03-31T07:06:15.628Z,14.1
2018-03-31T07:07:04.845Z,14.1
2018-03-31T07:07:54.490Z,14.1
2018-03-31T07:08:45.405Z,14.1
2018-03-31T07:09:35.099Z,14.1
2018-03-31T07:10:24.231Z,14.1
2018-03-31T07:11:14.244Z,14.1
2018-03-31T07:12:05.197Z,14.1
2018-03-31T07:12:55.077Z,14.1
2018-03-31T07:13:45.770Z,14.1
2018-03-31T07:14:35.354Z,14.1
2018-03-31T07:15:25.583Z,14.1
2018-03-31T07:16:15.676Z,14.1
2018-03-31T07:17:05.445Z,14.1
2018-03-31T07:17:55.897Z,14.1
2018-03-31T07:18:44.889Z,14.1
2018-03-31T07:19:35.648Z,14.1
2018-03-31T07:20:27.128Z,14.1
2018-03-31T07:21:15.772Z,14.1
2018-03-31T07:22:05.332Z,14.1
2018-03-31T07:22:55.506Z,14.1
2018-03-31T07:23:45.264Z,14.1
2018-03-31T07:24:34.662Z,14.1
2018-03-31T07:25:25.539Z,14.1
2018-03-31T07:26:15.332Z,14.1
2018-03-31T07:27:05.427Z,14
2018-03-31T07:27:57.237Z,14.1
2018-03-31T07:28:46.334Z,14
2018-03-31T07:29:36.277Z,14.1
2018-03-31T07:30:25.915Z,14
2018-03-31T07:31:15.839Z,14
2018-03-31T07:32:07.184Z,14
2018-03-31T07:32:57.489Z,14
2018-03-31T07:33:47.259Z,14
2018-03-31T07:34:37.699Z,14
2018-03-31T07:35:27.011Z,14
2018-03-31T07:36:17.339Z,14
2018-03-31T07:37:08.026Z,14
2018-03-31T07:37:58.406Z,14
2018-03-31T07:38:48.578Z,14
2018-03-31T07:39:38.062Z,14
2018-03-31T07:40:28.854Z,14
2018-03-31T07:41:18.636Z,14
2018-03-31T07:42:08.679Z,14
2018-03-31T07:42:58.478Z,14
2018-03-31T07:43:49.107Z,14
2018-03-31T07:44:37.753Z,14
2018-03-31T07:45:28.211Z,14
2018-03-31T07:46:18.511Z,14
2018-03-31T07:47:08.830Z,13.9
2018-03-31T07:47:59.143Z,14
2018-03-31T07:48:48.656Z,14
2018-03-31T07:49:38.973Z,13.9
2018-03-31T07:50:29.029Z,14
2018-03-31T07:51:19.155Z,14
2018-03-31T07:52:10.675Z,13.9
2018-03-31T07:52:59.198Z,13.9
2018-03-31T07:53:48.716Z,13.9
2018-03-31T07:54:39.985Z,14
2018-03-31T07:55:30.030Z,13.9
2018-03-31T07:56:19.747Z,13.9
2018-03-31T07:57:08.955Z,13.9
2018-03-31T07:57:57.882Z,13.9
2018-03-31T07:58:49.329Z,13.9
2018-03-31T07:59:39.155Z,13.9
2018-03-31T08:00:29.425Z,13.9
2018-03-31T08:01:19.395Z,14
2018-03-31T08:02:08.460Z,13.9
2018-03-31T08:02:59.047Z,13.9
2018-03-31T08:03:49.302Z,13.9
2018-03-31T08:04:38.272Z,13.9
2018-03-31T08:05:29.278Z,13.9
2018-03-31T08:06:19.092Z,13.9
2018-03-31T08:07:09.069Z,13.9
2018-03-31T08:07:59.834Z,13.9
2018-03-31T08:08:49.636Z,13.9
2018-03-31T08:09:39.129Z,13.9
2018-03-31T08:10:29.366Z,13.9
2018-03-31T08:11:19.221Z,13.9
2018-03-31T08:12:09.999Z,13.9
2018-03-31T08:13:00.504Z,13.9
2018-03-31T08:13:50.563Z,13.9
2018-03-31T08:14:41.599Z,13.9
2018-03-31T08:15:30.064Z,13.9
2018-03-31T08:16:19.664Z,13.9
2018-03-31T08:17:11.248Z,13.9
2018-03-31T08:18:00.445Z,13.9
2018-03-31T08:18:50.868Z,13.9
2018-03-31T08:19:40.546Z,13.9
2018-03-31T08:20:29.946Z,13.9
2018-03-31T08:21:19.148Z,13.9
2018-03-31T08:22:10.757Z,13.9
2018-03-31T08:23:00.533Z,13.9
2018-03-31T08:23:51.254Z,13.9
2018-03-31T08:24:39.828Z,13.9
2018-03-31T08:25:30.596Z,13.9
2018-03-31T08:26:20.779Z,13.9
2018-03-31T08:27:11.201Z,13.9
2018-03-31T08:28:01.157Z,13.9
2018-03-31T08:28:51.759Z,13.9
2018-03-31T08:29:42.360Z,13.9
2018-03-31T08:30:34.011Z,13.9
2018-03-31T08:31:22.926Z,13.9
2018-03-31T08:32:13.099Z,13.9
2018-03-31T08:33:02.968Z,13.9
2018-03-31T08:33:53.298Z,13.9
2018-03-31T08:34:43.685Z,13.9
2018-03-31T08:35:31.984Z,13.9
2018-03-31T08:36:23.474Z,13.9
2018-03-31T08:37:13.505Z,13.9
2018-03-31T08:38:03.353Z,13.9
2018-03-31T08:38:53.146Z,13.9
2018-03-31T08:39:42.923Z,13.9
2018-03-31T08:40:33.430Z,13.9
2018-03-31T08:41:23.524Z,13.9
2018-03-31T08:42:13.912Z,13.9
2018-03-31T08:43:03.927Z,13.9
2018-03-31T08:43:54.337Z,13.9
2018-03-31T08:44:44.097Z,13.9
2018-03-31T08:45:33.836Z,13.9
2018-03-31T08:46:24.196Z,13.9
2018-03-31T08:47:16.732Z,13.9
2018-03-31T08:48:03.752Z,13.9
2018-03-31T08:48:54.397Z,13.9
2018-03-31T08:49:44.699Z,13.9
2018-03-31T08:50:34.482Z,13.9
2018-03-31T08:51:24.617Z,13.9
2018-03-31T08:52:14.607Z,13.9
2018-03-31T08:53:03.840Z,13.9
2018-03-31T08:53:54.231Z,13.9
2018-03-31T08:54:44.956Z,13.9
2018-03-31T08:55:34.571Z,13.9
2018-03-31T08:56:24.534Z,13.9
2018-03-31T08:57:14.477Z,13.9
2018-03-31T08:58:04.514Z,13.9
2018-03-31T08:58:54.116Z,13.9
2018-03-31T08:59:45.160Z,13.9
2018-03-31T09:00:34.792Z,13.9
2018-03-31T09:01:24.803Z,13.9
2018-03-31T09:02:15.058Z,13.9
2018-03-31T09:03:05.394Z,13.9
2018-03-31T09:03:55.966Z,13.9
2018-03-31T09:04:45.514Z,13.9
2018-03-31T09:05:35.057Z,13.9
2018-03-31T09:06:25.636Z,13.9
2018-03-31T09:07:15.121Z,13.9
2018-03-31T09:08:05.098Z,13.9
2018-03-31T09:08:55.624Z,13.9
2018-03-31T09:09:45.629Z,13.9
2018-03-31T09:10:35.208Z,13.9
2018-03-31T09:11:25.278Z,13.9
2018-03-31T09:12:16.393Z,13.9
2018-03-31T09:13:05.995Z,13.9
2018-03-31T09:13:56.552Z,13.9
2018-03-31T09:14:46.312Z,13.9
2018-03-31T09:15:34.731Z,13.9
2018-03-31T09:16:23.935Z,13.9
2018-03-31T09:17:15.170Z,13.9
2018-03-31T09:18:05.025Z,13.9
2018-03-31T09:18:54.417Z,13.9
2018-03-31T09:19:44.770Z,13.9
2018-03-31T09:20:34.144Z,13.9
2018-03-31T09:21:24.759Z,13.9
2018-03-31T09:22:13.662Z,13.8
2018-03-31T09:23:04.369Z,13.9
2018-03-31T09:23:54.005Z,13.9
2018-03-31T09:24:48.912Z,13.9
2018-03-31T09:25:34.616Z,13.9
2018-03-31T09:26:24.612Z,13.9
2018-03-31T09:27:15.739Z,13.9
2018-03-31T09:28:04.911Z,13.9
2018-03-31T09:28:55.234Z,13.9
2018-03-31T09:29:46.001Z,13.9
2018-03-31T09:30:36.772Z,13.9
2018-03-31T09:31:25.855Z,13.9
2018-03-31T09:32:15.727Z,13.9
2018-03-31T09:33:05.564Z,13.8
2018-03-31T09:33:56.192Z,13.8
2018-03-31T09:34:45.307Z,13.8
2018-03-31T09:35:35.259Z,13.9
2018-03-31T09:36:25.404Z,13.8
2018-03-31T09:37:16.280Z,13.8
2018-03-31T09:38:05.886Z,13.9
2018-03-31T09:38:56.881Z,13.9
2018-03-31T09:39:45.297Z,13.9
2018-03-31T09:40:34.739Z,13.8
2018-03-31T09:41:25.492Z,13.8
2018-03-31T09:42:15.947Z,13.8
2018-03-31T09:43:05.842Z,13.8
2018-03-31T09:43:56.764Z,13.8
2018-03-31T09:44:45.789Z,13.8
2018-03-31T09:45:36.561Z,13.9
2018-03-31T09:46:27.293Z,13.8
2018-03-31T09:47:17.224Z,13.8
2018-03-31T09:48:06.357Z,13.8
2018-03-31T09:48:54.956Z,13.8
2018-03-31T09:49:46.131Z,13.8
2018-03-31T09:50:37.148Z,13.8
2018-03-31T09:51:26.128Z,13.9
2018-03-31T09:52:17.356Z,13.8
2018-03-31T09:53:06.445Z,13.8
2018-03-31T09:53:56.725Z,13.8
2018-03-31T09:54:46.541Z,13.8
2018-03-31T09:55:36.570Z,13.9
2018-03-31T09:56:27.192Z,13.8
2018-03-31T09:57:17.413Z,13.8
2018-03-31T09:58:07.042Z,13.8
2018-03-31T09:58:57.913Z,13.9
2018-03-31T09:59:47.113Z,13.8
2018-03-31T10:00:37.883Z,13.8
2018-03-31T10:01:27.783Z,13.8
2018-03-31T10:02:17.513Z,13.8
2018-03-31T10:03:08.027Z,13.8
2018-03-31T10:03:57.048Z,13.9
2018-03-31T10:04:47.300Z,13.8
2018-03-31T10:05:37.528Z,13.8
2018-03-31T10:06:26.799Z,13.8
2018-03-31T10:07:18.724Z,13.8
2018-03-31T10:08:07.336Z,13.8
2018-03-31T10:08:58.169Z,13.8
2018-03-31T10:09:48.914Z,13.8
2018-03-31T10:10:37.520Z,13.8
2018-03-31T10:11:28.299Z,13.8
2018-03-31T10:12:18.695Z,13.8
2018-03-31T10:13:08.787Z,13.8
2018-03-31T10:14:00.172Z,13.8
2018-03-31T10:14:48.899Z,13.8
2018-03-31T10:15:38.136Z,13.8
2018-03-31T10:16:29.272Z,13.8
2018-03-31T10:17:18.987Z,13.8
2018-03-31T10:18:09.244Z,13.9
2018-03-31T10:18:59.064Z,13.8
2018-03-31T10:19:49.666Z,13.9
2018-03-31T10:20:39.636Z,13.8
2018-03-31T10:21:29.374Z,13.8
2018-03-31T10:22:19.724Z,13.8
2018-03-31T10:23:09.220Z,13.8
2018-03-31T10:24:00.156Z,13.8
2018-03-31T10:24:50.131Z,13.8
2018-03-31T10:25:39.033Z,13.8
2018-03-31T10:26:29.321Z,13.8
2018-03-31T10:27:19.351Z,13.9
2018-03-31T10:28:09.434Z,13.8
2018-03-31T10:29:00.096Z,13.8
2018-03-31T10:29:49.652Z,13.8
2018-03-31T10:30:39.687Z,13.8
2018-03-31T10:31:30.589Z,13.8
2018-03-31T10:32:20.346Z,13.8
2018-03-31T10:33:10.195Z,13.8
2018-03-31T10:34:00.362Z,13.8
2018-03-31T10:34:49.452Z,13.8
2018-03-31T10:35:40.168Z,13.8
2018-03-31T10:36:30.373Z,13.8
2018-03-31T10:37:20.311Z,13.8
2018-03-31T10:38:10.255Z,13.8
2018-03-31T10:39:00.641Z,13.8
2018-03-31T10:39:51.096Z,13.8
2018-03-31T10:40:41.398Z,13.8
2018-03-31T10:41:29.649Z,13.8
2018-03-31T10:42:20.290Z,13.8
2018-03-31T10:43:11.224Z,13.8
2018-03-31T10:44:01.001Z,13.8
2018-03-31T10:44:51.018Z,13.8
2018-03-31T10:45:40.931Z,13.8
2018-03-31T10:46:31.659Z,13.8
2018-03-31T10:47:21.896Z,13.8
2018-03-31T10:48:11.334Z,13.9
2018-03-31T10:49:02.814Z,13.8
2018-03-31T10:49:51.110Z,13.8
2018-03-31T10:50:41.765Z,13.8
2018-03-31T10:51:30.927Z,13.8
2018-03-31T10:52:22.715Z,13.8
2018-03-31T10:53:10.905Z,13.8
2018-03-31T10:54:02.128Z,13.8
2018-03-31T10:54:51.605Z,13.8
2018-03-31T10:55:41.674Z,13.8
2018-03-31T10:56:32.446Z,13.8
2018-03-31T10:57:22.504Z,13.8
2018-03-31T10:58:13.272Z,13.8
2018-03-31T10:59:02.132Z,13.8
2018-03-31T10:59:53.519Z,13.8
2018-03-31T11:00:41.850Z,13.8
2018-03-31T11:01:31.719Z,13.8
2018-03-31T11:02:22.644Z,13.8
2018-03-31T11:03:11.567Z,13.8
2018-03-31T11:04:02.761Z,13.8
2018-03-31T11:04:51.889Z,13.8
2018-03-31T11:05:43.119Z,13.8
2018-03-31T11:06:33.272Z,13.8
2018-03-31T11:07:22.086Z,13.8
2018-03-31T11:08:13.010Z,13.8
2018-03-31T11:09:03.789Z,13.9
2018-03-31T11:09:52.074Z,13.8
2018-03-31T11:10:42.992Z,13.8
2018-03-31T11:11:32.899Z,13.8
2018-03-31T11:12:21.373Z,13.8
2018-03-31T11:13:13.563Z,13.8
2018-03-31T11:14:03.596Z,13.8
2018-03-31T11:14:54.451Z,13.8
2018-03-31T11:15:43.625Z,13.8
2018-03-31T11:16:33.798Z,13.8
2018-03-31T11:17:24.079Z,13.8
2018-03-31T11:18:13.691Z,13.8
2018-03-31T11:19:03.983Z,13.8
2018-03-31T11:19:53.807Z,13.8
2018-03-31T11:20:43.004Z,13.8
2018-03-31T11:21:32.704Z,13.8
2018-03-31T11:22:22.967Z,13.9
2018-03-31T11:23:13.417Z,13.8
2018-03-31T11:24:03.368Z,13.9
2018-03-31T11:24:54.122Z,13.8
2018-03-31T11:25:44.600Z,13.8
2018-03-31T11:26:33.910Z,13.9
2018-03-31T11:27:25.201Z,13.8
2018-03-31T11:28:14.190Z,13.8
2018-03-31T11:29:04.865Z,13.8
2018-03-31T11:29:54.588Z,13.8
2018-03-31T11:30:44.356Z,13.8
2018-03-31T11:31:34.827Z,13.8
2018-03-31T11:32:25.640Z,13.9
2018-03-31T11:33:14.215Z,13.9
2018-03-31T11:34:06.074Z,13.9
2018-03-31T11:34:55.111Z,13.9
2018-03-31T11:35:45.619Z,13.9
2018-03-31T11:36:35.095Z,13.9
2018-03-31T11:37:24.211Z,13.9
2018-03-31T11:38:15.332Z,13.9
2018-03-31T11:39:05.227Z,13.9
2018-03-31T11:39:55.455Z,13.9
2018-03-31T11:40:45.861Z,13.9
2018-03-31T11:41:34.972Z,13.9
2018-03-31T11:42:26.575Z,13.9
2018-03-31T11:43:14.320Z,13.9
2018-03-31T11:44:05.537Z,13.9
2018-03-31T11:44:56.907Z,13.9
2018-03-31T11:45:46.211Z,13.9
2018-03-31T11:46:35.286Z,13.9
2018-03-31T11:47:25.913Z,13.9
2018-03-31T11:48:16.346Z,13.9
2018-03-31T11:49:06.536Z,13.9
2018-03-31T11:49:56.682Z,13.9
2018-03-31T11:50:46.197Z,13.9
2018-03-31T11:51:35.724Z,13.9
2018-03-31T11:52:26.589Z,13.9
2018-03-31T11:53:16.457Z,13.9
2018-03-31T11:54:06.717Z,14
2018-03-31T11:54:55.275Z,13.9
2018-03-31T11:55:46.843Z,14
2018-03-31T11:56:36.263Z,14
2018-03-31T11:57:26.011Z,13.9
2018-03-31T11:58:16.947Z,14
2018-03-31T11:59:06.191Z,14
2018-03-31T11:59:56.393Z,14
2018-03-31T12:00:47.933Z,14
2018-03-31T12:01:37.167Z,14
2018-03-31T12:02:26.146Z,14
2018-03-31T12:03:16.820Z,14
2018-03-31T12:04:07.169Z,14
2018-03-31T12:04:56.888Z,14
2018-03-31T12:05:46.896Z,14
2018-03-31T12:06:36.712Z,14
2018-03-31T12:07:27.605Z,14
2018-03-31T12:08:17.180Z,14
2018-03-31T12:09:07.740Z,14
2018-03-31T12:09:58.232Z,14.1
2018-03-31T12:10:46.890Z,14
2018-03-31T12:11:37.493Z,14.1
2018-03-31T12:12:27.099Z,14.1
2018-03-31T12:13:18.365Z,14.1
2018-03-31T12:14:07.725Z,14.1
2018-03-31T12:14:58.209Z,14.1
2018-03-31T12:15:47.770Z,14.1
2018-03-31T12:16:38.399Z,14.1
2018-03-31T12:17:29.917Z,14.1
2018-03-31T12:18:18.343Z,14.1
2018-03-31T12:19:07.175Z,14.1
2018-03-31T12:19:57.463Z,14.1
2018-03-31T12:20:48.354Z,14.1
2018-03-31T12:21:37.387Z,14.1
2018-03-31T12:22:27.373Z,14.1
2018-03-31T12:23:17.307Z,14.1
2018-03-31T12:24:08.975Z,14.1
2018-03-31T12:24:58.150Z,14.1
2018-03-31T12:25:47.912Z,14.2
2018-03-31T12:26:39.134Z,14.2
2018-03-31T12:27:29.230Z,14.2
2018-03-31T12:28:18.961Z,14.2
2018-03-31T12:29:08.579Z,14.2
2018-03-31T12:29:59.217Z,14.2
2018-03-31T12:30:49.492Z,14.2
2018-03-31T12:31:39.454Z,14.2
2018-03-31T12:32:28.251Z,14.2
2018-03-31T12:33:18.991Z,14.3
2018-03-31T12:34:08.701Z,14.2
2018-03-31T12:34:58.212Z,14.3
2018-03-31T12:35:49.197Z,14.3
2018-03-31T12:36:39.080Z,14.3
2018-03-31T12:37:29.118Z,14.3
2018-03-31T12:38:19.346Z,14.3
2018-03-31T12:39:09.376Z,14.3
2018-03-31T12:40:00.338Z,14.3
2018-03-31T12:40:50.064Z,14.3
2018-03-31T12:41:39.989Z,14.3
2018-03-31T12:42:29.586Z,14.3
2018-03-31T12:43:20.510Z,14.3
2018-03-31T12:44:08.511Z,14.3
2018-03-31T12:44:59.569Z,14.3
2018-03-31T12:45:50.099Z,14.3
2018-03-31T12:46:42.011Z,14.3
2018-03-31T12:47:31.241Z,14.3
2018-03-31T12:48:22.170Z,14.3
2018-03-31T12:49:11.118Z,14.3
2018-03-31T12:50:02.859Z,14.3
2018-03-31T12:50:52.373Z,14.3
2018-03-31T12:51:42.406Z,14.3
2018-03-31T12:52:31.132Z,14.3
2018-03-31T12:53:20.472Z,14.3
2018-03-31T12:54:10.263Z,14.3
2018-03-31T12:55:01.280Z,14.3
2018-03-31T12:55:51.098Z,14.3
2018-03-31T12:56:41.775Z,14.3
2018-03-31T12:57:31.976Z,14.4
2018-03-31T12:58:20.998Z,14.4
2018-03-31T12:59:11.915Z,14.4
2018-03-31T13:00:01.479Z,14.4
2018-03-31T13:00:51.493Z,14.3
2018-03-31T13:01:41.893Z,14.4
2018-03-31T13:02:30.809Z,14.4
2018-03-31T13:03:20.919Z,14.4
2018-03-31T13:04:12.034Z,14.4
2018-03-31T13:05:01.370Z,14.4
2018-03-31T13:05:51.175Z,14.4
2018-03-31T13:06:41.247Z,14.4
2018-03-31T13:07:32.985Z,14.4
2018-03-31T13:08:21.682Z,14.4
2018-03-31T13:09:12.464Z,14.4
2018-03-31T13:10:02.936Z,14.4
2018-03-31T13:10:51.748Z,14.4
2018-03-31T13:11:41.074Z,14.4
2018-03-31T13:12:32.993Z,14.4
2018-03-31T13:13:21.647Z,14.4
2018-03-31T13:14:12.779Z,14.4
2018-03-31T13:15:01.934Z,14.4
2018-03-31T13:15:51.970Z,14.4
2018-03-31T13:16:42.606Z,14.5
2018-03-31T13:17:32.960Z,14.5
2018-03-31T13:18:22.234Z,14.4
2018-03-31T13:19:12.686Z,14.5
2018-03-31T13:20:02.462Z,14.5
2018-03-31T13:20:52.043Z,14.5
2018-03-31T13:21:43.679Z,14.5
2018-03-31T13:22:32.741Z,14.5
2018-03-31T13:23:22.735Z,14.5
2018-03-31T13:24:13.148Z,14.6
2018-03-31T13:25:03.414Z,14.5
2018-03-31T13:25:52.630Z,14.5
2018-03-31T13:26:41.688Z,14.5
2018-03-31T13:27:33.350Z,14.5
2018-03-31T13:28:23.504Z,14.5
2018-03-31T13:29:12.711Z,14.5
2018-03-31T13:30:03.321Z,14.5
2018-03-31T13:30:53.526Z,14.6
2018-03-31T13:31:43.824Z,14.5
2018-03-31T13:32:33.858Z,14.5
2018-03-31T13:33:24.556Z,14.5
2018-03-31T13:34:14.216Z,14.5
2018-03-31T13:35:05.099Z,14.5
2018-03-31T13:35:54.719Z,14.5
2018-03-31T13:36:43.926Z,14.5
2018-03-31T13:37:33.265Z,14.5
2018-03-31T13:38:24.822Z,14.5
2018-03-31T13:39:13.868Z,14.6
2018-03-31T13:40:03.861Z,14.6
2018-03-31T13:40:54.166Z,14.6
2018-03-31T13:41:43.862Z,14.6
2018-03-31T13:42:34.871Z,14.6
2018-03-31T13:43:24.212Z,14.6
2018-03-31T13:44:14.823Z,14.6
2018-03-31T13:45:05.073Z,14.6
2018-03-31T13:45:54.470Z,14.6
2018-03-31T13:46:45.054Z,14.6
2018-03-31T13:47:35.029Z,14.6
2018-03-31T13:48:24.727Z,14.6
2018-03-31T13:49:14.962Z,14.6
2018-03-31T13:50:04.827Z,14.6
2018-03-31T13:50:54.079Z,14.6
2018-03-31T13:51:45.470Z,14.6
2018-03-31T13:52:35.472Z,14.6
2018-03-31T13:53:25.565Z,14.6
2018-03-31T13:54:15.377Z,14.6
2018-03-31T13:55:04.902Z,14.6
2018-03-31T13:55:55.363Z,14.6
2018-03-31T13:56:45.231Z,14.6
2018-03-31T13:57:35.686Z,14.6
2018-03-31T13:58:24.190Z,14.6
2018-03-31T13:59:18.121Z,14.6
2018-03-31T14:00:07.536Z,14.6
2018-03-31T14:00:57.592Z,14.6
2018-03-31T14:01:47.661Z,14.6
2018-03-31T14:02:38.077Z,14.6
2018-03-31T14:03:27.998Z,14.6
2018-03-31T14:04:18.119Z,14.6
2018-03-31T14:05:06.530Z,14.6
2018-03-31T14:05:55.889Z,14.6
2018-03-31T14:06:46.168Z,14.6
2018-03-31T14:07:36.727Z,14.6
2018-03-31T14:08:26.589Z,14.6
2018-03-31T14:09:16.529Z,14.6
2018-03-31T14:10:07.374Z,14.6
2018-03-31T14:10:57.727Z,14.6
2018-03-31T14:11:46.706Z,14.6
2018-03-31T14:12:36.734Z,14.6
2018-03-31T14:13:26.560Z,14.6
2018-03-31T14:14:18.878Z,14.6
2018-03-31T14:15:08.666Z,14.6
2018-03-31T14:15:58.493Z,14.6
2018-03-31T14:16:48.203Z,14.6
2018-03-31T14:17:38.566Z,14.6
2018-03-31T14:18:29.175Z,14.6
2018-03-31T14:19:19.038Z,14.6
2018-03-31T14:20:09.045Z,14.6
2018-03-31T14:20:59.095Z,14.6
2018-03-31T14:21:47.912Z,14.6
2018-03-31T14:22:37.477Z,14.6
2018-03-31T14:23:26.550Z,14.6
2018-03-31T14:24:17.948Z,14.6
2018-03-31T14:25:07.724Z,14.6
2018-03-31T14:25:57.208Z,14.6
2018-03-31T14:26:47.478Z,14.6
2018-03-31T14:27:37.355Z,14.6
2018-03-31T14:28:28.028Z,14.6
2018-03-31T14:29:18.368Z,14.6
2018-03-31T14:30:07.685Z,14.6
2018-03-31T14:30:58.378Z,14.6
2018-03-31T14:31:48.705Z,14.6
2018-03-31T14:32:39.073Z,14.6
2018-03-31T14:33:28.572Z,14.6
2018-03-31T14:34:18.524Z,14.6
2018-03-31T14:35:07.553Z,14.6
2018-03-31T14:35:57.503Z,14.6
2018-03-31T14:36:48.820Z,14.6
2018-03-31T14:37:40.019Z,14.6
2018-03-31T14:38:28.133Z,14.6
2018-03-31T14:39:18.284Z,14.6
2018-03-31T14:40:08.749Z,14.6
2018-03-31T14:40:59.975Z,14.6
2018-03-31T14:41:48.865Z,14.6
2018-03-31T14:42:39.097Z,14.6
2018-03-31T14:43:29.152Z,14.6
2018-03-31T14:44:18.862Z,14.6
2018-03-31T14:45:09.883Z,14.6
2018-03-31T14:46:00.443Z,14.6
2018-03-31T14:46:47.764Z,14.6
2018-03-31T14:47:38.489Z,14.6
2018-03-31T14:48:29.958Z,14.6
2018-03-31T14:49:19.633Z,14.6
2018-03-31T14:50:10.096Z,14.5
2018-03-31T14:50:59.249Z,14.6
2018-03-31T14:51:49.764Z,14.6
2018-03-31T14:52:39.774Z,14.6
2018-03-31T14:53:29.815Z,14.6
2018-03-31T14:54:19.255Z,14.6
2018-03-31T14:55:09.469Z,14.6
2018-03-31T14:56:00.931Z,14.6
2018-03-31T14:56:50.619Z,14.6
2018-03-31T14:57:40.668Z,14.6
2018-03-31T14:58:29.103Z,14.6
2018-03-31T14:59:19.700Z,14.6
2018-03-31T15:00:09.603Z,14.6
2018-03-31T15:01:00.745Z,14.6
2018-03-31T15:01:50.232Z,14.6
2018-03-31T15:02:40.935Z,14.6
2018-03-31T15:03:29.106Z,14.6
2018-03-31T15:04:20.312Z,14.6
2018-03-31T15:05:10.867Z,14.6
2018-03-31T15:06:00.574Z,14.6
2018-03-31T15:06:50.498Z,14.5
2018-03-31T15:07:41.055Z,14.6
2018-03-31T15:08:30.652Z,14.5
2018-03-31T15:09:20.514Z,14.5
2018-03-31T15:10:10.599Z,14.5
2018-03-31T15:11:01.016Z,14.5
2018-03-31T15:11:51.116Z,14.6
2018-03-31T15:12:42.156Z,14.6
2018-03-31T15:13:32.686Z,14.5
2018-03-31T15:14:22.483Z,14.5
2018-03-31T15:15:12.304Z,14.5
2018-03-31T15:16:03.228Z,14.5
2018-03-31T15:16:52.138Z,14.5
2018-03-31T15:17:43.523Z,14.6
2018-03-31T15:18:33.321Z,14.5
2018-03-31T15:19:22.860Z,14.6
2018-03-31T15:20:12.935Z,14.6
2018-03-31T15:21:00.841Z,14.6
2018-03-31T15:21:52.836Z,14.5
2018-03-31T15:22:42.787Z,14.5
2018-03-31T15:23:32.428Z,14.5
2018-03-31T15:24:22.978Z,14.6
2018-03-31T15:25:13.817Z,14.5
2018-03-31T15:26:03.358Z,14.6
2018-03-31T15:26:53.188Z,14.5
2018-03-31T15:27:42.702Z,14.5
2018-03-31T15:28:33.688Z,14.6
2018-03-31T15:29:23.055Z,14.5
2018-03-31T15:30:13.972Z,14.5
2018-03-31T15:31:02.932Z,14.5
2018-03-31T15:31:53.839Z,14.5
2018-03-31T15:32:43.836Z,14.5
2018-03-31T15:33:34.666Z,14.5
2018-03-31T15:34:24.250Z,14.5
2018-03-31T15:35:14.292Z,14.5
2018-03-31T15:36:02.920Z,14.5
2018-03-31T15:36:52.919Z,14.5
2018-03-31T15:37:41.638Z,14.5
2018-03-31T15:38:33.207Z,14.5
2018-03-31T15:39:22.515Z,14.5
2018-03-31T15:40:12.329Z,14.5
2018-03-31T15:41:03.297Z,14.5
2018-03-31T15:41:53.464Z,14.5
2018-03-31T15:42:42.732Z,14.5
2018-03-31T15:43:33.709Z,14.5
2018-03-31T15:44:23.945Z,14.5
2018-03-31T15:45:13.720Z,14.5
2018-03-31T15:46:03.655Z,14.5
2018-03-31T15:46:53.704Z,14.5
2018-03-31T15:47:43.512Z,14.5
2018-03-31T15:48:34.059Z,14.4
2018-03-31T15:49:23.519Z,14.4
2018-03-31T15:50:14.420Z,14.5
2018-03-31T15:51:03.498Z,14.5
2018-03-31T15:51:55.235Z,14.5
2018-03-31T15:52:45.601Z,14.4
2018-03-31T15:53:35.679Z,14.4
2018-03-31T15:54:25.971Z,14.4
2018-03-31T15:55:15.501Z,14.5
2018-03-31T15:56:05.543Z,14.5
2018-03-31T15:56:55.958Z,14.5
2018-03-31T15:57:46.257Z,14.5
2018-03-31T15:58:36.070Z,14.5
2018-03-31T15:59:26.634Z,14.5